Skip Navigation Links
NOAA logo - Click to go to the NOAA homepage
NOAA's National Weather Service
Alaska Aviation Weather Unit
  NWS logo - Click to go to the NWS homepage
Left Navbar Graphic     12 AKDT = 20 GMT

   
NOAA is celebrating 200 years of science, service, and stewardship. Visit the NOAA 200th celebration Web site to learn more.
USA.gov is the U.S. Government's official Web portal to all Federal, state and local government Web resources and services.
Facebook
NWS on Facebook

Important Change Regarding the AAWU Web Presence

 

Over the last several months, the AAWU has been working to navigate its webpages to a nationally supported server. Security, as well as other needs, have necessitated the change.  We have been given an extension for the site changeover while we diligently work at addressing feedback received. As of July 14, 2017, aawu.arh.noaa.gov will be discontinued. The new AAWU web address is weather.gov/aawu. It is now live and will run in-parallel with the old site until it is discontinued on July 14, 2017. Please continue to send any feedback or questions regarding the new webpages to nws.ar.aawu.webauthors@noaa.gov.  Thank you for your patience during this time of transition.
AAWU Home :: Display TAF Add Bookmark
TAF CYXJ 251838Z 2519/2607 22006KT P6SM FEW170 BKN210 TEMPO 2521/2524
     P6SM VCTS BKN060CB
    FM260000 22010KT P6SM FEW060 FEW170
    RMK NXT FCST BY 260100Z=

METAR CYXJ 251400Z 22004KT 60SM FEW160 BKN230 13/11 A2997 RMK AC2CI3 SLP157 DENSITY ALT 2600FT= METAR CYXJ 251500Z 22009G15KT 60SM BKN230 17/09 A2999 RMK CI5 SLP160 DENSITY ALT 3000FT= METAR CYXJ 251600Z 22009G16KT 60SM BKN230 18/10 A2998 RMK CI5 SLP158 DENSITY ALT 3100FT= METAR CYXJ 251700Z 23010G16KT 30SM FEW170 BKN210 21/11 A2997 RMK AC1CI4 SLP154 DENSITY ALT 3500FT= METAR CYXJ 251800Z 22006KT 190V260 30SM FEW170 BKN210 22/13 A2998 RMK AC1CI4 SLP155 DENSITY ALT 3600FT= METAR CYXJ 251900Z 23006KT 190V270 60SM FEW040 BKN210 23/12 A2997 RMK CU1CI5 CU TR SLP155 DENSITY ALT 3700FT= METAR CYXJ 252000Z 22007KT 30SM FEW044 BKN210 24/13 A2997 RMK CU1CI5 CU TR SLP153 DENSITY ALT 3800FT=
 Alaska TAF Map

NOAA's National Weather Service
Alaska Aviation Weather Unit
6930 Sand Lake Road
Anchorage, AK 99502-1845
Disclaimer
Credits
Glossary
Privacy Policy
About Us
Career Opportunities
Contact AAWU Internet Services Site last modified: April, 17th 2012